• Join FlightAware (Why Join?)
  • Login
  • US Flag 
04:52AM EDT


 

Airport Tracker/Info


-or-


 

Live Flight TrackerFlight Track Log ✈ RPA3143 ✈ 07-Jul-2013 ✈ KDCA - KMCO

Flight Track Log - Related Links

Times and Time Zones

All times are in EDT time to prevent confusion due to time zone crossing. See the RPA3143 flight status page for this flight to view local times or setup timezone preferences in your user account.

Time Position Orientation Groundspeed Altitude Reporting Facility
EDT Latitude Longitude Course Direction KTS MPH feet Rate Location/Type
07:58AM 38.8000 -77.0333 233° Southwest 178 205 1,800  Level Potomac TRACON
07:59AM 38.7667 -77.0667 218° Southwest 244 281 3,500 2,280 Climbing Potomac TRACON
08:00AM 38.6319 -77.2848 218° Southwest  Level FlightAware Approximate
08:00AM 38.7500 -77.1500 256° West 272 313 6,000  Level Potomac TRACON
08:01AM 38.5525 -77.3642 218° Southwest  Level FlightAware Approximate
08:01AM 38.7000 -77.2167 226° Southwest 273 314 8,900  Level Potomac TRACON
08:02AM 38.4795 -77.4526 225° Southwest  Level FlightAware Approximate
08:02AM 38.6500 -77.2833 226° Southwest 291 335 11,000  Level Potomac TRACON
08:03AM 38.4059 -77.5387 201° Southwest  Level FlightAware Approximate
08:03AM 38.5731 -77.3656 220° Southwest 314 361 13,500  Level Washington Center
08:04AM 38.3369 -77.6274 233° Southwest  Level FlightAware Approximate
08:04AM 38.5008 -77.4486 222° Southwest 320 368 15,800  Level Washington Center
08:05AM 38.4308 -77.5264 221° Southwest 326 375 17,800 1,860 Climbing Washington Center
08:06AM 38.3586 -77.6042 220° Southwest 331 381 19,500 1,740 Climbing Washington Center
08:07AM 38.2822 -77.6839 219° Southwest 348 400 21,400 1,800 Climbing Washington Center
08:08AM 38.2078 -77.7639 220° Southwest 353 406 23,200 1,560 Climbing Washington Center
08:09AM 38.1311 -77.8461 220° Southwest 358 412 24,600 1,320 Climbing Washington Center
08:10AM 38.0503 -77.9333 220° Southwest 368 423 25,800 1,320 Climbing Washington Center
08:11AM 37.9653 -78.0175 218° Southwest 373 429 27,200 1,140 Climbing Washington Center
08:12AM 37.8842 -78.1072 221° Southwest 388 447 28,200 960 Climbing Washington Center
08:13AM 37.8094 -78.1886 221° Southwest 393 452 29,200 900 Climbing Washington Center
08:14AM 37.7219 -78.2803 220° Southwest 399 459 30,100 780 Climbing Washington Center
08:15AM 37.6300 -78.3739 219° Southwest 410 472 30,800 660 Climbing Washington Center
08:16AM 37.5403 -78.4650 219° Southwest 417 480 31,500 720 Climbing Washington Center
08:17AM 37.4375 -78.5736 220° Southwest 430 495 32,300 720 Climbing Washington Center
08:18AM 37.3433 -78.6692 219° Southwest 436 502 33,000 660 Climbing Washington Center
08:19AM 37.2489 -78.7644 219° Southwest 436 502 33,700 480 Climbing Washington Center
08:20AM 37.1547 -78.8622 220° Southwest 436 502 34,000 120 Climbing Washington Center
08:21AM 37.0581 -78.9597 219° Southwest 436 502 34,000  Level Washington Center
08:22AM 36.9742 -79.0469 220° Southwest 436 502 34,000  Level Washington Center
08:23AM 36.8797 -79.1414 219° Southwest 436 502 34,000  Level Washington Center
08:26AM 36.6514 -79.3683 219° Southwest 440 506 34,000  Level Atlanta Center
08:27AM 36.5672 -79.4558 220° Southwest 440 506 34,000  Level Atlanta Center
08:28AM 36.4686 -79.5519 218° Southwest 445 512 34,000  Level Atlanta Center
08:29AM 36.3739 -79.6450 218° Southwest 445 512 34,000  Level Atlanta Center
08:30AM 36.2814 -79.7400 220° Southwest 445 512 34,000  Level Atlanta Center
08:31AM 36.1783 -79.8408 218° Southwest 445 512 34,000  Level Atlanta Center
08:32AM 36.0875 -79.9328 219° Southwest 440 506 34,000  Level Atlanta Center
08:33AM 35.9858 -80.0047 210° Southwest 435 501 34,000  Level Atlanta Center
08:34AM 35.8722 -80.0461 196° South 421 484 34,000  Level Atlanta Center
08:35AM 35.7692 -80.0769 194° South 421 484 34,000  Level Atlanta Center
08:36AM 35.6556 -80.1156 195° South 421 484 34,000  Level Atlanta Center
08:37AM 35.5400 -80.1517 194° South 426 490 34,000  Level Atlanta Center
08:38AM 35.4283 -80.1875 195° South 438 504 34,000  Level Atlanta Center
08:39AM 35.3086 -80.2289 196° South 433 498 34,000  Level Atlanta Center
08:41AM 35.0386 -80.3142 195° South 409 471 34,000  Level Jacksonville Center
08:42AM 34.9269 -80.3531 196° South 415 478 34,000  Level Jacksonville Center
08:43AM 34.8192 -80.3842 193° South 431 496 34,000  Level Jacksonville Center
08:44AM 34.6969 -80.4256 196° South 431 496 34,000  Level Jacksonville Center
08:45AM 34.5828 -80.4592 194° South 431 496 34,000  Level Jacksonville Center
08:46AM 34.4667 -80.4975 195° South 431 496 34,000  Level Jacksonville Center
08:47AM 34.3506 -80.5308 193° South 431 496 34,000  Level Jacksonville Center
08:48AM 34.2364 -80.5692 196° South 431 496 34,000  Level Jacksonville Center
08:49AM 34.1203 -80.6025 193° South 431 496 34,000  Level Jacksonville Center
08:50AM 34.0042 -80.6406 195° South 431 496 34,000  Level Jacksonville Center
08:51AM 33.8878 -80.6761 194° South 431 496 34,000  Level Jacksonville Center
08:52AM 33.7717 -80.7139 195° South 431 496 34,000  Level Jacksonville Center
08:53AM 33.6575 -80.7492 194° South 431 496 34,000  Level Jacksonville Center
08:54AM 33.5414 -80.7844 194° South 431 496 34,000  Level Jacksonville Center
08:55AM 33.4106 -80.8247 194° South 431 496 34,000  Level Jacksonville Center
08:56AM 33.2942 -80.8575 193° South 437 503 34,000  Level Jacksonville Center
08:57AM 33.1778 -80.8947 195° South 431 496 34,000  Level Jacksonville Center
08:58AM 33.0614 -80.9294 194° South 431 496 34,000  Level Jacksonville Center
08:59AM 32.9450 -80.9642 194° South 431 496 34,000  Level Jacksonville Center
09:00AM 32.8267 -80.9989 194° South 431 496 34,000  Level Jacksonville Center
09:01AM 32.7103 -81.0358 195° South 436 502 34,000  Level Jacksonville Center
09:02AM 32.5961 -81.0703 194° South 416 479 34,000  Level Jacksonville Center
09:03AM 32.4919 -81.0994 193° South 428 493 34,000  Level Jacksonville Center
09:04AM 32.3569 -81.1392 194° South 451 519 34,000  Level Jacksonville Center
09:05AM 32.2364 -81.1758 194° South 445 512 34,000  Level Jacksonville Center
09:06AM 32.1111 -81.1806 182° South 452 520 34,000  Level Jacksonville Center
09:07AM 31.9878 -81.1781 179° South 444 511 34,000  Level Jacksonville Center
09:08AM 31.8606 -81.1706 177° South 451 519 34,000  Level Jacksonville Center
09:09AM 31.7519 -81.1700 180° South 445 512 34,000  Level Jacksonville Center
09:10AM 31.6161 -81.1653 178° South 445 512 34,000  Level Jacksonville Center
09:11AM 31.4950 -81.1603 178° South 440 506 34,000  Level Jacksonville Center
09:12AM 31.3822 -81.1575 179° South 442 509 34,000  Level Jacksonville Center
09:13AM 31.2589 -81.1572 180° South 442 509 34,000  Level Jacksonville Center
09:14AM 31.1378 -81.1572 180° South 442 509 34,000  Level Jacksonville Center
09:15AM 31.0147 -81.1544 179° South 442 509 34,000  Level Jacksonville Center
09:16AM 30.8894 -81.1497 178° South 442 509 34,000  Level Jacksonville Center
09:17AM 30.7661 -81.1447 178° South 442 509 34,000 -480 Level Jacksonville Center
09:18AM 30.6450 -81.1444 180° South 442 509 33,100 -960 Descending Jacksonville Center
09:19AM 30.5197 -81.1419 179° South 442 509 32,100 -1,020 Descending Jacksonville Center
09:20AM 30.3944 -81.1369 178° South 442 509 31,100 -1,020 Descending Jacksonville Center
09:21AM 30.2586 -81.1347 179° South 442 509 30,100 -1,140 Descending Jacksonville Center
09:22AM 30.1311 -81.1344 180° South 442 509 28,900 -1,380 Descending Jacksonville Center
09:23AM 30.0058 -81.1297 178° South 447 514 27,400 -1,500 Descending Jacksonville Center
09:24AM 29.8847 -81.1269 179° South 447 514 25,900 -1,620 Descending Jacksonville Center
09:25AM 29.7678 -81.1267 180° South 436 502 24,200 -1,380 Descending Jacksonville Center
09:26AM 29.6531 -81.1242 179° South 426 490 23,200 -1,320 Descending Jacksonville Center
09:27AM 29.5403 -81.1214 179° South 414 476 21,600 -1,620 Descending Jacksonville Center
09:28AM 29.4336 -81.1186 179° South 403 464 20,000 -1,680 Descending Jacksonville Center
09:29AM 29.3211 -81.1181 180° South 397 457 18,300 -2,040 Descending Jacksonville Center
09:30AM 29.2206 -81.1081 175° South 390 449 16,000 -2,400 Descending Jacksonville Center
09:31AM 29.1225 -81.0981 175° South 374 430 13,500 -2,040 Descending Jacksonville Center
09:32AM 29.0306 -81.0903 176° South 363 418 12,000 -900 Descending Jacksonville Center
09:33AM 28.9489 -81.0822 175° South 324 373 11,700 -1,140 Descending Jacksonville Center
09:34AM 28.8714 -81.0644 169° South 303 349 9,800 -1,980 Descending Jacksonville Center
09:35AM 28.8167 -81.0833 197° South 292 336 8,400 -1,500 Descending Orlando TRACON
09:36AM 28.7667 -81.1500 229° Southwest 276 318 7,300 -1,020 Descending Orlando TRACON
09:37AM 28.7167 -81.2000 221° Southwest 235 270 6,400 -1,140 Descending Orlando TRACON
09:38AM 28.6667 -81.2500 221° Southwest 214 246 5,100 -1,380 Descending Orlando TRACON
09:39AM 28.6167 -81.2833 210° Southwest 207 238 3,700 -1,380 Descending Orlando TRACON